Time;durP1;ratioP1;P1;durP2;ratioP2;P2;SDS_P1;SDS_P2;PMS_P1;PMS_P2;Temp;Humidity;BMP_temperature;BMP_pressure;BME280_temperature;BME280_humidity;BME280_pressure;Samples;Min_cycle;Max_cycle;Signal;HPM_P1;HPM_P2
2022/09/13 05:00:17;;;;;;;2.70;2.37;;;16.80;97.20;;;;;;1734105;28;20180;-69
2022/09/13 05:01:09;;;;;;;3.22;2.55;;;16.80;97.20;;;;;;1733795;28;20675;-68
2022/09/13 05:02:01;;;;;;;4.43;2.45;;;16.80;97.20;;;;;;1733969;28;20808;-68
2022/09/13 05:02:55;;;;;;;2.08;1.95;;;16.80;97.20;;;;;;1734013;28;20215;-69
2022/09/13 05:03:46;;;;;;;3.10;2.80;;;16.80;97.20;;;;;;1734078;28;20200;-70
2022/09/13 05:04:37;;;;;;;3.28;2.50;;;16.80;97.20;;;;;;1733929;28;20208;-69
2022/09/13 05:05:31;;;;;;;2.50;2.30;;;16.80;97.20;;;;;;1734022;28;20196;-70
2022/09/13 05:06:22;;;;;;;2.95;2.05;;;16.80;97.20;;;;;;1733663;28;20224;-71
2022/09/13 05:07:14;;;;;;;3.97;2.45;;;16.80;97.20;;;;;;1733052;28;20212;-70
2022/09/13 05:08:04;;;;;;;2.80;2.17;;;16.80;97.20;;;;;;1733887;28;20196;-70
2022/09/13 05:08:56;;;;;;;2.03;1.80;;;16.80;97.20;;;;;;1733815;28;20199;-70
2022/09/13 05:09:47;;;;;;;3.55;2.05;;;16.80;97.20;;;;;;1733932;28;20215;-70
2022/09/13 05:10:39;;;;;;;2.87;2.23;;;16.80;97.20;;;;;;1733917;28;20294;-70
2022/09/13 05:11:30;;;;;;;2.25;2.10;;;16.80;97.20;;;;;;1735284;28;20517;-70
2022/09/13 05:12:22;;;;;;;2.60;2.40;;;16.80;97.20;;;;;;1734663;28;20206;-71
2022/09/13 05:13:13;;;;;;;2.40;2.20;;;16.80;97.20;;;;;;1733907;28;20667;-69
2022/09/13 05:14:05;;;;;;;3.08;2.20;;;16.80;97.20;;;;;;1737071;28;20226;-70
2022/09/13 05:14:56;;;;;;;3.13;2.08;;;16.80;97.20;;;;;;1733940;28;20207;-70
2022/09/13 05:15:48;;;;;;;2.43;2.23;;;16.80;97.20;;;;;;1734087;28;20211;-70
2022/09/13 05:16:39;;;;;;;2.50;2.30;;;16.80;97.20;;;;;;1733621;28;20208;-70
2022/09/13 05:17:30;;;;;;;2.40;2.20;;;16.80;97.20;;;;;;1733351;28;20281;-70
2022/09/13 05:18:22;;;;;;;3.20;2.50;;;16.80;97.20;;;;;;1733889;28;20250;-70
2022/09/13 05:19:13;;;;;;;3.60;2.65;;;16.80;97.20;;;;;;1733988;28;20207;-69
2022/09/13 05:20:06;;;;;;;2.67;2.23;;;16.80;97.20;;;;;;1733886;28;20651;-70
2022/09/13 05:20:58;;;;;;;2.15;2.05;;;16.80;97.20;;;;;;1727084;28;20204;-70
2022/09/13 05:21:50;;;;;;;3.85;2.38;;;16.80;97.20;;;;;;1727269;28;20239;-70
2022/09/13 05:22:40;;;;;;;2.20;2.10;;;16.80;97.20;;;;;;1727214;28;20717;-70
2022/09/13 05:23:32;;;;;;;2.47;2.30;;;16.80;97.20;;;;;;1727157;28;20607;-69
2022/09/13 05:24:23;;;;;;;2.55;2.35;;;16.80;97.20;;;;;;1727186;28;20209;-70
2022/09/13 05:25:15;;;;;;;2.60;2.40;;;16.80;97.20;;;;;;1727049;28;20235;-70
2022/09/13 05:26:06;;;;;;;2.35;2.25;;;16.80;97.20;;;;;;1727019;28;20228;-70
2022/09/13 05:26:57;;;;;;;2.90;2.70;;;16.80;97.20;;;;;;1732393;28;20282;-70
2022/09/13 05:27:48;;;;;;;2.40;2.20;;;16.80;97.20;;;;;;1733433;28;20701;-70
2022/09/13 05:28:39;;;;;;;2.47;2.27;;;16.80;97.20;;;;;;1733948;28;20566;-69
2022/09/13 05:29:30;;;;;;;3.73;2.40;;;16.80;97.20;;;;;;1734056;28;20585;-69
2022/09/13 05:30:21;;;;;;;2.60;2.40;;;16.80;97.20;;;;;;1734322;28;20196;-70
2022/09/13 05:31:18;;;;;;;2.60;2.40;;;16.80;97.20;;;;;;1735225;28;20689;-70
2022/09/13 05:32:08;;;;;;;2.22;2.08;;;16.80;97.20;;;;;;1735453;28;20562;-70
2022/09/13 05:33:00;;;;;;;3.53;2.13;;;16.80;97.20;;;;;;1735242;28;20199;-70
2022/09/13 05:33:53;;;;;;;3.50;2.42;;;16.80;97.20;;;;;;1735212;28;20227;-70
2022/09/13 05:34:45;;;;;;;2.75;2.55;;;16.80;97.20;;;;;;1735231;28;20195;-70
2022/09/13 05:35:39;;;;;;;3.25;2.17;;;16.80;97.20;;;;;;1735109;28;20219;-69
2022/09/13 05:36:32;;;;;;;2.60;2.40;;;16.80;97.20;;;;;;1735167;28;20198;-70
2022/09/13 05:37:23;;;;;;;2.63;2.42;;;16.80;97.20;;;;;;1734157;28;20216;-70
2022/09/13 05:38:14;;;;;;;2.63;2.43;;;16.80;97.20;;;;;;1734477;28;20184;-70
2022/09/13 05:39:06;;;;;;;2.38;2.17;;;16.80;97.20;;;;;;1734613;28;20207;-69
2022/09/13 05:39:58;;;;;;;2.60;2.30;;;16.80;97.20;;;;;;1734572;28;20231;-70
2022/09/13 05:40:55;;;;;;;5.40;2.25;;;16.80;97.20;;;;;;1734761;28;20235;-70
2022/09/13 05:41:46;;;;;;;2.88;2.50;;;16.90;97.20;;;;;;1735222;28;20196;-69
2022/09/13 05:42:37;;;;;;;7.45;2.30;;;16.90;97.20;;;;;;1733883;28;20590;-70
2022/09/13 05:43:33;;;;;;;3.60;2.83;;;16.90;97.20;;;;;;1734919;28;20588;-70
2022/09/13 05:44:23;;;;;;;2.53;2.33;;;16.90;97.20;;;;;;1734870;28;20222;-70
2022/09/13 05:45:15;;;;;;;2.60;2.40;;;16.90;97.20;;;;;;1735084;28;20246;-70
2022/09/13 05:46:09;;;;;;;7.00;2.30;;;16.90;97.20;;;;;;1735062;28;20235;-70
2022/09/13 05:47:03;;;;;;;3.20;2.47;;;16.90;97.20;;;;;;1734737;28;20208;-69
2022/09/13 05:47:53;;;;;;;2.92;2.63;;;16.90;97.20;;;;;;1734444;28;20204;-70
2022/09/13 05:48:45;;;;;;;2.40;2.20;;;16.90;97.20;;;;;;1734872;28;20196;-70
2022/09/13 05:49:36;;;;;;;3.47;2.10;;;16.90;97.20;;;;;;1735082;28;20243;-70
2022/09/13 05:50:28;;;;;;;2.70;2.13;;;16.90;97.20;;;;;;1734562;28;20191;-70
2022/09/13 05:51:20;;;;;;;2.92;2.50;;;16.90;97.20;;;;;;1734868;28;20717;-69
2022/09/13 05:52:12;;;;;;;13.95;3.80;;;16.90;97.20;;;;;;1734859;28;20204;-70
2022/09/13 05:53:03;;;;;;;5.43;3.70;;;16.90;97.20;;;;;;1735014;28;20232;-70
2022/09/13 05:53:56;;;;;;;7.53;4.90;;;16.90;97.20;;;;;;1735105;28;20202;-70
2022/09/13 05:54:47;;;;;;;8.13;5.05;;;16.90;97.20;;;;;;1735115;28;21076;-70
2022/09/13 05:55:38;;;;;;;4.80;3.07;;;17.00;97.20;;;;;;1734871;28;20855;-70
2022/09/13 05:56:30;;;;;;;5.07;3.15;;;17.00;97.20;;;;;;1734491;28;20200;-70
2022/09/13 05:57:22;;;;;;;3.97;2.83;;;17.00;97.20;;;;;;1733726;28;20224;-70
2022/09/13 05:58:13;;;;;;;4.80;3.20;;;17.00;97.20;;;;;;1734426;28;20254;-70
2022/09/13 05:59:05;;;;;;;5.10;3.60;;;17.00;97.20;;;;;;1734405;28;20192;-70
2022/09/13 05:59:55;;;;;;;4.55;2.97;;;17.00;97.20;;;;;;1734391;28;20242;-70
2022/09/13 06:00:53;;;;;;;4.73;3.27;;;17.00;97.20;;;;;;1734738;28;20214;-70
2022/09/13 06:01:44;;;;;;;3.80;2.70;;;17.00;97.20;;;;;;1735172;28;20281;-70
2022/09/13 06:02:37;;;;;;;3.10;2.80;;;17.00;97.20;;;;;;1734912;28;20258;-70
2022/09/13 06:03:27;;;;;;;4.25;3.20;;;17.00;97.20;;;;;;1734970;28;20474;-70
2022/09/13 06:04:19;;;;;;;5.10;3.17;;;17.00;97.20;;;;;;1734412;28;20199;-70
2022/09/13 06:05:10;;;;;;;3.65;2.40;;;17.00;97.20;;;;;;1734437;28;20228;-70
2022/09/13 06:06:03;;;;;;;2.88;2.65;;;17.00;97.20;;;;;;1734700;28;20199;-70
2022/09/13 06:06:54;;;;;;;4.07;2.85;;;17.00;97.20;;;;;;1734827;28;20204;-70
2022/09/13 06:07:46;;;;;;;6.90;2.80;;;17.00;97.20;;;;;;1734540;28;20204;-70
2022/09/13 06:08:36;;;;;;;2.90;2.70;;;17.10;97.20;;;;;;1734915;28;20207;-70
2022/09/13 06:09:28;;;;;;;3.37;3.07;;;17.10;97.20;;;;;;1735237;28;20208;-69
2022/09/13 06:10:19;;;;;;;3.53;2.55;;;17.10;97.20;;;;;;1734922;28;20207;-70
2022/09/13 06:11:12;;;;;;;5.47;2.90;;;17.10;97.20;;;;;;1735008;28;20299;-70
2022/09/13 06:12:04;;;;;;;3.38;2.85;;;17.10;97.20;;;;;;1734828;28;20200;-70
2022/09/13 06:12:55;;;;;;;2.83;2.55;;;17.10;97.20;;;;;;1735054;28;20199;-70
2022/09/13 06:13:46;;;;;;;4.05;2.55;;;17.20;97.20;;;;;;1735073;28;20745;-70
2022/09/13 06:14:38;;;;;;;2.80;2.60;;;17.20;97.20;;;;;;1735036;28;20587;-70
2022/09/13 06:15:29;;;;;;;2.63;2.42;;;17.20;97.20;;;;;;1735132;28;20207;-70
2022/09/13 06:16:21;;;;;;;2.87;2.67;;;17.20;97.20;;;;;;1734957;28;20206;-70
2022/09/13 06:17:11;;;;;;;3.60;2.30;;;17.20;97.20;;;;;;1734243;28;20609;-70
2022/09/13 06:18:05;;;;;;;3.87;3.03;;;17.20;97.20;;;;;;1734987;28;20196;-70
2022/09/13 06:18:57;;;;;;;2.50;2.30;;;17.20;97.20;;;;;;1734870;28;20207;-69
2022/09/13 06:19:49;;;;;;;3.28;2.30;;;17.30;97.20;;;;;;1734939;28;20215;-70
2022/09/13 06:20:40;;;;;;;2.40;2.20;;;17.30;97.20;;;;;;1733599;28;20218;-70
2022/09/13 06:21:31;;;;;;;4.67;2.80;;;17.30;97.20;;;;;;1734852;28;20283;-70
2022/09/13 06:22:22;;;;;;;3.10;2.35;;;17.30;97.20;;;;;;1734982;28;20200;-70
2022/09/13 06:23:15;;;;;;;4.50;2.80;;;17.40;97.20;;;;;;1734942;28;20196;-69
2022/09/13 06:24:06;;;;;;;3.30;2.88;;;17.40;97.20;;;;;;1735003;28;20200;-70
2022/09/13 06:24:57;;;;;;;3.10;2.80;;;17.40;97.20;;;;;;1734918;28;20192;-70
2022/09/13 06:25:48;;;;;;;2.65;2.40;;;17.40;97.20;;;;;;1735041;28;20222;-70
2022/09/13 06:26:40;;;;;;;2.90;2.60;;;17.40;97.20;;;;;;1734662;28;20318;-70
2022/09/13 06:27:31;;;;;;;2.35;2.17;;;17.40;97.20;;;;;;1734369;28;21108;-69
2022/09/13 06:28:22;;;;;;;2.93;2.40;;;17.40;97.20;;;;;;1734881;28;20843;-70
2022/09/13 06:29:13;;;;;;;3.25;2.47;;;17.50;97.20;;;;;;1734888;28;20203;-70
2022/09/13 06:30:07;;;;;;;5.37;2.53;;;17.50;97.20;;;;;;1735047;28;20202;-70
2022/09/13 06:31:00;;;;;;;3.15;2.05;;;17.50;97.20;;;;;;1734646;28;20196;-70
2022/09/13 06:31:51;;;;;;;4.25;2.50;;;17.50;97.20;;;;;;1734780;28;20231;-70
2022/09/13 06:32:42;;;;;;;2.80;2.60;;;17.50;97.20;;;;;;1734926;28;20211;-70
2022/09/13 06:33:37;;;;;;;2.47;2.27;;;17.50;97.20;;;;;;1734914;28;20230;-70
2022/09/13 06:34:27;;;;;;;4.20;2.38;;;17.50;97.20;;;;;;1734735;28;20246;-69
2022/09/13 06:35:19;;;;;;;2.60;2.40;;;17.50;97.20;;;;;;1734721;28;20199;-70
2022/09/13 06:36:13;;;;;;;2.70;2.50;;;17.50;97.20;;;;;;1733409;28;20208;-70
2022/09/13 06:37:05;;;;;;;3.17;2.70;;;17.50;97.20;;;;;;1734600;28;20192;-70
2022/09/13 06:37:56;;;;;;;3.90;2.90;;;17.50;97.20;;;;;;1733806;28;20231;-70
2022/09/13 06:38:48;;;;;;;10.23;2.83;;;17.50;97.20;;;;;;1730487;28;20206;-70
2022/09/13 06:39:40;;;;;;;5.32;2.45;;;17.50;97.20;;;;;;1727971;28;20200;-70
2022/09/13 06:40:31;;;;;;;2.58;2.38;;;17.50;97.20;;;;;;1728764;28;20197;-70
2022/09/13 06:41:23;;;;;;;5.18;3.05;;;17.50;97.20;;;;;;1730531;28;20204;-70
2022/09/13 06:42:15;;;;;;;6.03;3.20;;;17.50;97.20;;;;;;1732252;28;20570;-70
2022/09/13 06:43:06;;;;;;;7.05;3.60;;;17.50;97.20;;;;;;1733095;28;20310;-70
2022/09/13 06:43:59;;;;;;;5.70;3.70;;;17.50;97.20;;;;;;1729385;28;20280;-70
2022/09/13 06:44:50;;;;;;;8.50;3.45;;;17.50;97.20;;;;;;1727324;28;20231;-70
2022/09/13 06:45:42;;;;;;;4.60;3.50;;;17.50;97.20;;;;;;1727350;28;20204;-70
2022/09/13 06:46:35;;;;;;;5.53;4.00;;;17.50;97.20;;;;;;1726544;28;20628;-70
2022/09/13 06:47:27;;;;;;;6.05;3.97;;;17.50;97.20;;;;;;1726240;28;20298;-70
2022/09/13 06:48:18;;;;;;;7.03;3.70;;;17.50;97.20;;;;;;1727188;28;20606;-70
2022/09/13 06:49:11;;;;;;;11.00;4.70;;;17.50;97.20;;;;;;1727249;28;20200;-70
2022/09/13 06:50:02;;;;;;;4.68;4.28;;;17.50;97.20;;;;;;1727350;28;20223;-69
2022/09/13 06:50:57;;;;;;;7.97;4.00;;;17.50;97.20;;;;;;1730574;28;20196;-70
2022/09/13 06:51:48;;;;;;;7.05;4.45;;;17.50;97.20;;;;;;1734540;28;20208;-70
2022/09/13 06:52:39;;;;;;;4.47;3.50;;;17.50;97.20;;;;;;1734557;28;20200;-70
2022/09/13 06:53:30;;;;;;;6.18;4.40;;;17.50;97.20;;;;;;1734487;28;20203;-70
2022/09/13 06:54:22;;;;;;;6.03;4.67;;;17.60;97.20;;;;;;1734404;28;20191;-70
2022/09/13 06:55:13;;;;;;;7.13;4.60;;;17.60;97.20;;;;;;1734103;28;20810;-70
2022/09/13 06:56:06;;;;;;;6.10;4.47;;;17.60;97.20;;;;;;1734359;28;20291;-70
2022/09/13 06:56:57;;;;;;;10.32;4.60;;;17.60;97.20;;;;;;1734108;28;20228;-70
2022/09/13 06:57:49;;;;;;;9.60;4.67;;;17.60;97.20;;;;;;1734134;28;20207;-72
2022/09/13 06:58:41;;;;;;;11.23;5.18;;;17.60;97.20;;;;;;1734329;28;20674;-71
2022/09/13 06:59:33;;;;;;;9.45;4.60;;;17.70;97.20;;;;;;1734391;28;20200;-71
2022/09/13 07:00:24;;;;;;;5.30;4.78;;;17.70;97.20;;;;;;1733974;28;20203;-72
2022/09/13 07:01:18;;;;;;;7.77;4.77;;;17.70;97.20;;;;;;1734413;28;20231;-71
2022/09/13 07:02:09;;;;;;;10.95;5.75;;;17.70;97.20;;;;;;1734725;28;20242;-71
2022/09/13 07:03:01;;;;;;;5.65;4.72;;;17.80;97.20;;;;;;1734523;28;20207;-73
2022/09/13 07:03:53;;;;;;;7.65;5.25;;;17.80;97.20;;;;;;1734702;28;20693;-71
2022/09/13 07:04:46;;;;;;;5.93;3.90;;;17.80;97.20;;;;;;1734699;28;20207;-72
2022/09/13 07:05:37;;;;;;;4.70;4.20;;;17.80;97.20;;;;;;1734667;28;20234;-71
2022/09/13 07:06:32;;;;;;;8.00;4.07;;;17.90;97.20;;;;;;1734725;28;20212;-71
2022/09/13 07:07:22;;;;;;;8.35;4.40;;;17.80;97.20;;;;;;1734018;28;20220;-72
2022/09/13 07:08:14;;;;;;;5.60;4.87;;;17.90;97.20;;;;;;1734718;28;20207;-70
2022/09/13 07:09:07;;;;;;;5.45;4.38;;;17.90;97.20;;;;;;1734669;28;20332;-72
2022/09/13 07:09:59;;;;;;;5.10;4.60;;;17.90;97.20;;;;;;1734629;28;20200;-71
2022/09/13 07:10:50;;;;;;;9.45;5.47;;;17.90;97.20;;;;;;1734405;28;20203;-72
2022/09/13 07:11:42;;;;;;;6.07;4.53;;;18.00;97.20;;;;;;1734711;28;20206;-71
2022/09/13 07:12:33;;;;;;;5.40;4.90;;;18.00;97.20;;;;;;1734668;28;20247;-71
2022/09/13 07:13:24;;;;;;;6.40;4.13;;;18.00;97.20;;;;;;1734869;28;20206;-71
2022/09/13 07:14:17;;;;;;;6.40;3.85;;;18.00;97.20;;;;;;1734649;28;20199;-71
2022/09/13 07:15:09;;;;;;;7.53;4.40;;;18.00;97.20;;;;;;1734709;28;20705;-71
2022/09/13 07:16:01;;;;;;;6.10;4.38;;;18.00;97.20;;;;;;1734634;28;20214;-72
2022/09/13 07:16:53;;;;;;;4.70;4.20;;;18.10;97.20;;;;;;1734266;28;20230;-71
2022/09/13 07:17:44;;;;;;;5.63;4.55;;;18.10;97.20;;;;;;1734218;28;20204;-70
2022/09/13 07:18:36;;;;;;;8.17;4.30;;;18.10;97.20;;;;;;1734426;28;20203;-71
2022/09/13 07:19:28;;;;;;;8.85;4.60;;;18.10;97.20;;;;;;1734687;28;20707;-71
2022/09/13 07:20:22;;;;;;;8.70;4.18;;;18.10;97.20;;;;;;1734300;28;20697;-72
2022/09/13 07:21:13;;;;;;;5.20;4.57;;;18.10;97.20;;;;;;1734586;28;20663;-71
2022/09/13 07:22:04;;;;;;;12.70;4.00;;;18.20;97.20;;;;;;1734666;28;20576;-71
2022/09/13 07:22:55;;;;;;;4.25;3.85;;;18.20;97.20;;;;;;1734442;28;20208;-71
2022/09/13 07:23:47;;;;;;;5.17;3.67;;;18.20;97.20;;;;;;1734689;28;20200;-71
2022/09/13 07:24:38;;;;;;;4.15;3.30;;;18.30;97.20;;;;;;1734540;28;20211;-71
2022/09/13 07:25:29;;;;;;;4.40;3.70;;;18.30;97.20;;;;;;1734640;28;20287;-71
2022/09/13 07:26:21;;;;;;;4.45;3.40;;;18.30;97.20;;;;;;1734562;28;20702;-71
2022/09/13 07:27:13;;;;;;;5.57;3.83;;;18.30;97.20;;;;;;1733647;28;20603;-71
2022/09/13 07:28:04;;;;;;;4.72;3.30;;;18.40;97.20;;;;;;1734542;28;20236;-71
2022/09/13 07:28:57;;;;;;;7.13;4.10;;;18.40;97.20;;;;;;1734371;28;20199;-72
2022/09/13 07:29:48;;;;;;;4.30;3.85;;;18.40;97.20;;;;;;1734596;28;20237;-71
2022/09/13 07:30:40;;;;;;;5.47;4.20;;;18.50;97.20;;;;;;1734279;28;20670;-71
2022/09/13 07:31:32;;;;;;;6.63;4.10;;;18.50;97.20;;;;;;1734492;28;20200;-71
2022/09/13 07:32:24;;;;;;;5.47;3.90;;;18.50;97.20;;;;;;1734566;28;20203;-71
2022/09/13 07:33:16;;;;;;;4.90;4.07;;;18.60;97.20;;;;;;1734523;28;20235;-72
2022/09/13 07:34:11;;;;;;;6.43;5.82;;;18.60;97.20;;;;;;1734491;28;20254;-71
2022/09/13 07:35:05;;;;;;;7.00;5.85;;;18.70;97.20;;;;;;1734572;28;20200;-71
2022/09/13 07:36:01;;;;;;;5.30;4.40;;;18.70;97.20;;;;;;1734368;28;20216;-71
2022/09/13 07:36:52;;;;;;;7.85;5.43;;;18.80;97.20;;;;;;1734371;28;20327;-71
2022/09/13 07:37:45;;;;;;;6.78;4.45;;;18.80;97.20;;;;;;1733973;28;20207;-71
2022/09/13 07:38:37;;;;;;;17.67;4.75;;;18.90;97.20;;;;;;1734347;28;20223;-72
2022/09/13 07:39:29;;;;;;;6.40;4.95;;;18.90;97.20;;;;;;1734554;28;20637;-71
2022/09/13 07:40:19;;;;;;;6.72;4.28;;;18.90;97.20;;;;;;1734152;28;20204;-71
2022/09/13 07:41:13;;;;;;;10.30;4.53;;;19.00;97.20;;;;;;1734355;28;20750;-71
2022/09/13 07:42:05;;;;;;;3.95;3.55;;;19.00;97.20;;;;;;1734466;28;20564;-72
2022/09/13 07:42:56;;;;;;;5.28;3.58;;;19.00;97.20;;;;;;1734412;28;20251;-71
2022/09/13 07:43:48;;;;;;;5.85;4.35;;;19.10;97.20;;;;;;1734451;28;20200;-72
2022/09/13 07:44:39;;;;;;;10.15;4.93;;;19.10;97.20;;;;;;1734416;28;20204;-71
2022/09/13 07:45:30;;;;;;;8.90;4.80;;;19.20;97.20;;;;;;1734483;28;20283;-71
2022/09/13 07:46:23;;;;;;;4.70;3.70;;;19.20;97.20;;;;;;1734331;28;20208;-72
2022/09/13 07:47:15;;;;;;;5.43;3.55;;;19.30;97.20;;;;;;1733548;28;20691;-71
2022/09/13 07:48:05;;;;;;;6.75;3.80;;;19.30;97.20;;;;;;1734424;28;20202;-72
2022/09/13 07:48:57;;;;;;;7.97;3.23;;;19.30;97.20;;;;;;1734297;28;20195;-72
2022/09/13 07:49:49;;;;;;;5.63;4.05;;;19.40;97.20;;;;;;1734380;28;20208;-71
2022/09/13 07:50:41;;;;;;;8.48;4.25;;;19.40;97.20;;;;;;1734177;28;20615;-72
2022/09/13 07:51:34;;;;;;;5.93;3.95;;;19.50;97.20;;;;;;1734371;28;20203;-71
2022/09/13 07:52:28;;;;;;;5.50;4.25;;;19.50;97.20;;;;;;1734379;28;20199;-71
2022/09/13 07:53:18;;;;;;;9.43;4.47;;;19.60;97.20;;;;;;1734136;28;20196;-71
2022/09/13 07:54:12;;;;;;;8.23;5.00;;;19.60;97.20;;;;;;1734441;28;20191;-71
2022/09/13 07:55:03;;;;;;;5.82;4.50;;;19.70;97.20;;;;;;1734368;28;20218;-72
2022/09/13 07:56:01;;;;;;;7.68;4.40;;;19.80;97.20;;;;;;1734350;28;20589;-72
2022/09/13 07:56:51;;;;;;;6.00;3.92;;;19.80;97.20;;;;;;1734122;28;20683;-71
2022/09/13 07:57:43;;;;;;;4.70;3.50;;;19.90;97.20;;;;;;1733941;28;20551;-71
2022/09/13 07:58:35;;;;;;;5.13;3.53;;;20.00;97.20;;;;;;1734196;28;20274;-72
2022/09/13 07:59:27;;;;;;;7.05;3.90;;;20.00;97.20;;;;;;1734432;28;20203;-71
2022/09/13 08:00:18;;;;;;;8.32;3.10;;;20.00;97.20;;;;;;1734010;28;20214;-72
2022/09/13 08:01:14;;;;;;;5.40;3.10;;;20.10;97.20;;;;;;1734382;28;20291;-71
2022/09/13 08:02:05;;;;;;;3.78;3.28;;;20.10;97.20;;;;;;1734414;28;20443;-71
2022/09/13 08:02:56;;;;;;;4.27;3.30;;;20.20;97.20;;;;;;1734058;28;20206;-71
2022/09/13 08:03:50;;;;;;;4.20;3.40;;;20.20;97.20;;;;;;1734397;28;20211;-71
2022/09/13 08:04:42;;;;;;;3.38;3.10;;;20.30;97.20;;;;;;1734272;28;20200;-71
2022/09/13 08:05:38;;;;;;;4.85;3.25;;;20.30;97.20;;;;;;1734235;28;20254;-71
2022/09/13 08:06:31;;;;;;;2.95;2.65;;;20.30;97.20;;;;;;1734339;28;20200;-71
2022/09/13 08:07:23;;;;;;;4.05;2.72;;;20.40;97.20;;;;;;1733462;28;20227;-71
2022/09/13 08:08:15;;;;;;;3.60;3.05;;;20.40;97.20;;;;;;1734329;28;20215;-71
2022/09/13 08:09:09;;;;;;;3.80;3.15;;;20.50;97.20;;;;;;1734230;28;20204;-72
2022/09/13 08:10:00;;;;;;;10.98;5.65;;;20.50;97.20;;;;;;1734301;28;20642;-71
2022/09/13 08:10:51;;;;;;;7.70;4.60;;;20.60;97.20;;;;;;1733980;28;20184;-72
2022/09/13 08:11:45;;;;;;;5.28;4.55;;;20.70;97.20;;;;;;1734311;28;20200;-72
2022/09/13 08:12:36;;;;;;;8.30;5.80;;;20.80;97.20;;;;;;1734235;28;20207;-73
2022/09/13 08:13:29;;;;;;;5.40;4.47;;;20.80;97.20;;;;;;1734360;28;20203;-72
2022/09/13 08:14:21;;;;;;;4.97;4.57;;;20.90;97.20;;;;;;1734259;28;20690;-71
2022/09/13 08:15:12;;;;;;;6.72;5.18;;;21.00;97.20;;;;;;1734223;28;20686;-71
2022/09/13 08:16:05;;;;;;;5.18;4.05;;;21.10;97.20;;;;;;1734219;28;20204;-71
2022/09/13 08:16:57;;;;;;;5.72;4.50;;;21.20;97.20;;;;;;1733892;28;20223;-71
2022/09/13 08:17:47;;;;;;;5.00;3.75;;;21.20;97.20;;;;;;1733773;28;20206;-71
2022/09/13 08:18:44;;;;;;;2.80;2.60;;;21.30;97.20;;;;;;1734104;28;20210;-71
2022/09/13 08:19:35;;;;;;;2.70;2.50;;;21.40;97.20;;;;;;1734244;28;20238;-72
2022/09/13 08:20:27;;;;;;;2.37;2.17;;;21.40;97.20;;;;;;1734007;28;20208;-72
2022/09/13 08:21:18;;;;;;;3.03;2.70;;;21.40;97.20;;;;;;1727363;28;20201;-72
2022/09/13 08:22:10;;;;;;;4.10;2.83;;;21.40;97.20;;;;;;1734138;28;20202;-72
2022/09/13 08:23:02;;;;;;;2.78;2.35;;;21.40;97.20;;;;;;1734292;28;20199;-71
2022/09/13 08:23:59;;;;;;;4.20;3.33;;;21.40;97.20;;;;;;1734249;28;20594;-72
2022/09/13 08:24:50;;;;;;;3.50;3.13;;;21.50;97.20;;;;;;1734274;28;20208;-71
2022/09/13 08:25:41;;;;;;;5.55;3.53;;;21.50;97.20;;;;;;1734261;28;20212;-71
2022/09/13 08:26:34;;;;;;;3.27;3.07;;;21.50;97.20;;;;;;1734163;28;20206;-71
2022/09/13 08:27:26;;;;;;;5.25;4.85;;;21.50;97.20;;;;;;1733438;28;20662;-72
2022/09/13 08:28:20;;;;;;;5.47;4.97;;;21.50;97.20;;;;;;1734253;28;20200;-72
2022/09/13 08:29:13;;;;;;;3.60;3.30;;;21.60;97.20;;;;;;1734107;28;20619;-72
2022/09/13 08:30:06;;;;;;;3.65;2.53;;;21.60;97.20;;;;;;1734080;28;20290;-72
2022/09/13 08:31:02;;;;;;;2.90;2.70;;;21.60;97.20;;;;;;1733682;28;20192;-71
2022/09/13 08:31:54;;;;;;;3.17;2.15;;;21.70;97.20;;;;;;1734133;28;20234;-72
2022/09/13 08:32:49;;;;;;;3.70;2.67;;;21.70;97.20;;;;;;1734218;28;20261;-72
2022/09/13 08:33:43;;;;;;;3.67;3.33;;;21.70;97.20;;;;;;1734186;28;20349;-71
2022/09/13 08:34:34;;;;;;;3.78;3.47;;;21.80;97.20;;;;;;1734115;28;20204;-72
2022/09/13 08:35:26;;;;;;;4.45;3.17;;;21.80;97.20;;;;;;1734123;28;20250;-72
2022/09/13 08:36:18;;;;;;;3.22;2.75;;;21.90;97.20;;;;;;1732116;28;20207;-72
2022/09/13 08:37:11;;;;;;;4.53;2.17;;;21.90;97.20;;;;;;1733314;28;20219;-74
2022/09/13 08:38:04;;;;;;;4.10;2.42;;;22.00;97.20;;;;;;1740387;28;20286;-71
2022/09/13 08:38:59;;;;;;;2.40;2.20;;;22.00;97.20;;;;;;1734573;28;20203;-72
2022/09/13 08:39:49;;;;;;;3.10;2.40;;;22.10;97.20;;;;;;1733434;28;20207;-72
2022/09/13 08:40:45;;;;;;;2.30;2.10;;;22.10;97.20;;;;;;1733666;28;20192;-72
2022/09/13 08:42:06;;;;;;;2.88;2.35;;;22.10;97.20;;;;;;1733610;28;20295;-71
2022/09/13 08:43:04;;;;;;;3.10;2.38;;;22.10;97.20;;;;;;1733617;28;20204;-72
2022/09/13 08:44:02;;;;;;;2.97;2.42;;;22.20;97.20;;;;;;1734106;28;20207;-72
2022/09/13 08:44:54;;;;;;;5.97;3.90;;;22.20;97.20;;;;;;1734058;28;20580;-72
2022/09/13 08:45:50;;;;;;;5.10;2.50;;;22.20;97.20;;;;;;1734179;28;20199;-72
2022/09/13 08:46:44;;;;;;;2.70;2.50;;;22.30;97.20;;;;;;1733503;28;20214;-72
2022/09/13 08:47:42;;;;;;;2.85;2.65;;;22.30;97.20;;;;;;1732699;28;20235;-72
2022/09/13 08:48:35;;;;;;;2.60;2.33;;;22.30;97.20;;;;;;1733968;28;20204;-72
2022/09/13 08:49:30;;;;;;;3.38;2.70;;;22.40;97.20;;;;;;1733594;28;20195;-72
2022/09/13 08:50:27;;;;;;;3.30;3.00;;;22.40;97.20;;;;;;1734110;28;20196;-72
2022/09/13 08:51:29;;;;;;;2.35;2.10;;;22.50;97.20;;;;;;1734113;28;20212;-73
2022/09/13 08:52:29;;;;;;;3.13;2.03;;;22.60;97.20;;;;;;1734121;28;20714;-74
2022/09/13 08:53:25;;;;;;;3.95;2.10;;;22.70;97.20;;;;;;1734130;28;20196;-73
2022/09/13 08:54:19;;;;;;;3.00;2.35;;;22.80;97.20;;;;;;1734067;28;20203;-73
2022/09/13 08:55:22;;;;;;;2.20;1.80;;;22.80;97.20;;;;;;1734020;28;20211;-73
2022/09/13 08:56:22;;;;;;;3.00;2.45;;;22.90;97.20;;;;;;1734108;28;20211;-72
2022/09/13 08:57:17;;;;;;;3.58;2.45;;;22.90;97.20;;;;;;1733240;28;20235;-72
2022/09/13 08:58:30;;;;;;;3.10;2.60;;;22.90;97.20;;;;;;1734056;28;20203;-73
2022/09/13 08:59:40;;;;;;;4.38;2.00;;;23.00;97.20;;;;;;1733795;28;20192;-72
2022/09/13 09:00:37;;;;;;;3.28;2.30;;;23.00;97.20;;;;;;1734092;28;20709;-73
2022/09/13 09:01:41;;;;;;;3.17;2.38;;;23.10;97.20;;;;;;1734137;28;20231;-73
2022/09/13 09:02:50;;;;;;;2.33;2.13;;;23.10;97.20;;;;;;1734081;28;20615;-72
2022/09/13 09:03:46;;;;;;;2.17;2.00;;;23.10;97.20;;;;;;1734061;28;20238;-72
2022/09/13 09:04:44;;;;;;;7.18;2.28;;;23.20;97.20;;;;;;1734056;28;20661;-71
2022/09/13 09:05:46;;;;;;;4.50;2.40;;;23.20;97.20;;;;;;1734866;28;20204;-72
2022/09/13 09:06:37;;;;;;;3.20;2.30;;;23.20;97.20;;;;;;1735286;28;20243;-72
2022/09/13 09:07:33;;;;;;;3.00;2.05;;;23.20;97.20;;;;;;1734808;28;20216;-73
2022/09/13 09:08:32;;;;;;;3.08;2.50;;;23.20;97.20;;;;;;1735442;28;20295;-72
2022/09/13 09:09:25;;;;;;;3.00;2.70;;;23.20;97.20;;;;;;1735310;28;20231;-72
2022/09/13 09:10:20;;;;;;;2.45;2.25;;;23.20;97.20;;;;;;1735357;28;20274;-72
2022/09/13 09:11:22;;;;;;;3.78;2.83;;;23.30;97.20;;;;;;1735520;28;20232;-72
2022/09/13 09:12:22;;;;;;;2.22;2.03;;;23.30;97.20;;;;;;1735463;28;20196;-72
2022/09/13 09:13:21;;;;;;;3.63;2.20;;;23.40;97.20;;;;;;1735432;28;20203;-72
2022/09/13 09:14:19;;;;;;;2.40;2.10;;;23.50;97.20;;;;;;1735428;28;20709;-72
2022/09/13 09:15:16;;;;;;;2.35;2.15;;;23.50;97.20;;;;;;1735303;28;20217;-72
2022/09/13 09:16:21;;;;;;;3.58;1.92;;;23.60;97.20;;;;;;1734897;28;20199;-72
2022/09/13 09:17:17;;;;;;;4.40;2.55;;;23.60;97.20;;;;;;1734294;28;20208;-72
2022/09/13 09:18:12;;;;;;;2.90;2.70;;;23.60;97.20;;;;;;1734793;28;20203;-72
2022/09/13 09:19:13;;;;;;;4.60;2.63;;;23.70;97.20;;;;;;1734616;28;20200;-72
2022/09/13 09:20:15;;;;;;;2.83;2.60;;;23.80;97.20;;;;;;1735507;28;20206;-72
2022/09/13 09:21:13;;;;;;;4.18;2.28;;;23.90;97.20;;;;;;1735544;28;20196;-71
2022/09/13 09:22:12;;;;;;;3.08;2.47;;;23.90;97.20;;;;;;1735296;28;20199;-72
2022/09/13 09:23:08;;;;;;;3.17;2.88;;;24.00;97.20;;;;;;1735412;28;20199;-73
2022/09/13 09:24:03;;;;;;;3.80;2.85;;;24.00;97.20;;;;;;1735394;28;20204;-72
2022/09/13 09:24:56;;;;;;;4.10;3.00;;;24.10;97.20;;;;;;1735303;28;20726;-72
2022/09/13 09:25:49;;;;;;;3.95;2.38;;;24.10;97.20;;;;;;1735381;28;20210;-72
2022/09/13 09:26:41;;;;;;;4.03;2.17;;;24.20;97.20;;;;;;1735093;28;20246;-72
2022/09/13 09:27:32;;;;;;;4.28;2.80;;;24.20;97.20;;;;;;1734649;28;20251;-72
2022/09/13 09:28:25;;;;;;;3.80;2.67;;;24.20;97.20;;;;;;1735265;28;20713;-72
2022/09/13 09:29:19;;;;;;;3.33;3.03;;;24.30;97.20;;;;;;1734962;28;20686;-72
2022/09/13 09:30:14;;;;;;;5.80;2.97;;;24.40;97.20;;;;;;1735321;28;20238;-72
2022/09/13 09:31:13;;;;;;;5.15;2.45;;;24.50;97.20;;;;;;1735394;28;20204;-72
2022/09/13 09:32:18;;;;;;;3.65;2.33;;;24.60;97.20;;;;;;1735428;28;20659;-72
2022/09/13 09:33:24;;;;;;;5.00;2.20;;;24.60;97.20;;;;;;1735534;28;20204;-72
2022/09/13 09:34:25;;;;;;;3.97;2.30;;;24.80;97.20;;;;;;1735253;28;20192;-73
2022/09/13 09:35:27;;;;;;;5.05;2.42;;;24.90;97.20;;;;;;1735254;28;20203;-72
2022/09/13 09:36:28;;;;;;;4.07;2.70;;;25.10;97.20;;;;;;1735251;28;20236;-72